Time;durP1;ratioP1;P1;durP2;ratioP2;P2;SDS_P1;SDS_P2;PMS_P1;PMS_P2;Temp;Humidity;BMP_temperature;BMP_pressure;BME280_temperature;BME280_humidity;BME280_pressure;Samples;Min_cycle;Max_cycle;Signal;HPM_P1;HPM_P2
2021/05/04 00:01:19;;;;;;;17.23;7.33;;;6.90;99.90;;;;;;5041760;28;20051;-69
2021/05/04 00:03:46;;;;;;;14.80;7.23;;;6.90;99.90;;;;;;5045410;28;20052;-69
2021/05/04 00:06:12;;;;;;;13.87;7.20;;;6.90;99.90;;;;;;5042688;28;20522;-68
2021/05/04 00:08:40;;;;;;;15.07;6.97;;;6.80;99.90;;;;;;5033069;28;20052;-69
2021/05/04 00:11:06;;;;;;;12.77;7.17;;;6.80;99.90;;;;;;5041366;28;20051;-69
2021/05/04 00:13:33;;;;;;;19.40;7.37;;;6.80;99.90;;;;;;5040723;28;20474;-69
2021/05/04 00:15:59;;;;;;;14.67;7.03;;;6.80;99.90;;;;;;5040594;28;20048;-69
2021/05/04 00:18:26;;;;;;;12.47;6.73;;;6.90;99.90;;;;;;5041470;28;20061;-69
2021/05/04 00:20:53;;;;;;;15.60;6.47;;;6.80;99.90;;;;;;5039739;28;20048;-68
2021/05/04 00:23:19;;;;;;;12.27;6.83;;;6.80;99.90;;;;;;5037219;28;20428;-68
2021/05/04 00:25:47;;;;;;;15.30;7.00;;;6.80;99.90;;;;;;5039628;28;20522;-67
2021/05/04 00:28:14;;;;;;;13.73;7.30;;;6.70;99.90;;;;;;5041087;28;20059;-67
2021/05/04 00:30:40;;;;;;;12.27;6.83;;;6.80;99.90;;;;;;5040859;28;20048;-67
2021/05/04 00:33:07;;;;;;;12.17;6.37;;;6.70;99.90;;;;;;5037651;28;20047;-67
2021/05/04 00:35:34;;;;;;;11.30;7.07;;;6.70;99.90;;;;;;5035912;28;20061;-67
2021/05/04 00:38:00;;;;;;;12.20;6.83;;;6.80;99.90;;;;;;5036810;28;20512;-67
2021/05/04 00:40:27;;;;;;;12.67;6.93;;;6.80;99.90;;;;;;5039182;28;20049;-67
2021/05/04 00:42:55;;;;;;;11.13;6.63;;;6.80;99.90;;;;;;5038709;28;20068;-67
2021/05/04 00:45:21;;;;;;;13.90;7.13;;;6.90;99.90;;;;;;5043580;28;20110;-67
2021/05/04 00:47:48;;;;;;;12.27;6.53;;;6.90;99.90;;;;;;5044719;28;20040;-67
2021/05/04 00:50:15;;;;;;;12.30;6.27;;;6.90;99.90;;;;;;5040697;28;20063;-67
2021/05/04 00:52:42;;;;;;;12.53;6.57;;;7.00;99.90;;;;;;5044495;28;20048;-67
2021/05/04 00:55:09;;;;;;;14.20;6.43;;;7.00;99.90;;;;;;5044366;28;20055;-67
2021/05/04 00:57:37;;;;;;;14.27;6.17;;;7.00;99.90;;;;;;5042216;28;20063;-68
2021/05/04 01:00:06;;;;;;;12.10;6.73;;;7.00;99.90;;;;;;5048528;28;20531;-67
2021/05/04 01:02:34;;;;;;;15.03;6.43;;;6.90;99.90;;;;;;5043078;28;20056;-67
2021/05/04 01:05:02;;;;;;;10.53;6.20;;;6.90;99.90;;;;;;5043275;28;20047;-67
2021/05/04 01:07:29;;;;;;;11.60;6.50;;;7.00;99.90;;;;;;5043585;28;20056;-67
2021/05/04 01:09:56;;;;;;;12.13;6.80;;;7.00;99.90;;;;;;5037334;28;20075;-68
2021/05/04 01:12:23;;;;;;;12.20;6.03;;;7.00;99.90;;;;;;5045112;28;20055;-67
2021/05/04 01:14:50;;;;;;;9.87;5.47;;;7.10;99.90;;;;;;5042260;28;20055;-67
2021/05/04 01:17:17;;;;;;;13.30;6.27;;;7.00;99.90;;;;;;5042469;28;20595;-67
2021/05/04 01:19:44;;;;;;;12.37;6.43;;;7.00;99.90;;;;;;5044881;28;20266;-67
2021/05/04 01:22:11;;;;;;;11.17;5.83;;;7.00;99.90;;;;;;5048309;28;20505;-67
2021/05/04 01:24:38;;;;;;;10.50;5.80;;;6.90;99.90;;;;;;5042459;28;20063;-67
2021/05/04 01:27:06;;;;;;;12.23;6.53;;;6.90;99.90;;;;;;5042586;28;20057;-67
2021/05/04 01:29:33;;;;;;;11.37;6.27;;;6.80;99.90;;;;;;5046335;28;20060;-67
2021/05/04 01:32:00;;;;;;;13.33;5.80;;;6.80;99.90;;;;;;5038794;28;20135;-67
2021/05/04 01:34:27;;;;;;;11.80;6.30;;;6.90;99.90;;;;;;5040174;28;20059;-67
2021/05/04 01:36:53;;;;;;;10.03;5.73;;;6.90;99.90;;;;;;5043146;28;20113;-67
2021/05/04 01:39:31;;;;;;;10.60;5.97;;;6.90;99.90;;;;;;5047624;28;20850;-67
2021/05/04 01:41:58;;;;;;;11.77;5.80;;;6.80;99.90;;;;;;5042965;28;20059;-67
2021/05/04 01:44:25;;;;;;;10.33;6.37;;;6.80;99.90;;;;;;5046193;28;20056;-67
2021/05/04 01:46:51;;;;;;;14.67;6.30;;;6.80;99.90;;;;;;5043401;28;20055;-67
2021/05/04 01:49:18;;;;;;;15.00;6.57;;;6.80;99.90;;;;;;5039493;28;20048;-67
2021/05/04 01:51:45;;;;;;;12.27;6.67;;;6.80;99.90;;;;;;5037854;28;20055;-67
2021/05/04 01:54:11;;;;;;;9.73;5.87;;;6.90;99.90;;;;;;5043702;28;20497;-67
2021/05/04 01:56:39;;;;;;;11.07;6.00;;;6.90;99.90;;;;;;5043058;28;20089;-67
2021/05/04 01:59:06;;;;;;;11.10;5.80;;;6.90;99.90;;;;;;5042929;28;20064;-67
2021/05/04 02:01:33;;;;;;;11.97;6.23;;;6.90;99.90;;;;;;5044031;28;20052;-67
2021/05/04 02:03:59;;;;;;;10.77;6.17;;;6.90;99.90;;;;;;5042787;28;20048;-67
2021/05/04 02:06:26;;;;;;;11.07;5.53;;;6.90;99.90;;;;;;5039223;28;20063;-68
2021/05/04 02:08:52;;;;;;;12.10;6.63;;;6.80;99.90;;;;;;5039853;28;20113;-67
2021/05/04 02:11:19;;;;;;;11.97;6.20;;;6.80;99.90;;;;;;5040486;28;20764;-67
2021/05/04 02:13:47;;;;;;;12.93;6.30;;;6.80;99.90;;;;;;5041546;28;20670;-67
2021/05/04 02:16:13;;;;;;;11.13;5.97;;;6.80;99.90;;;;;;5036769;28;20098;-67
2021/05/04 02:18:40;;;;;;;10.97;6.10;;;6.80;99.90;;;;;;5040753;28;20048;-67
2021/05/04 02:21:06;;;;;;;12.60;6.57;;;6.70;99.90;;;;;;5041179;28;20045;-67
2021/05/04 02:23:35;;;;;;;12.00;6.30;;;6.70;99.90;;;;;;5038427;28;20053;-67
2021/05/04 02:26:01;;;;;;;11.97;5.50;;;6.70;99.90;;;;;;5046429;28;20533;-67
2021/05/04 02:28:28;;;;;;;11.67;6.67;;;6.70;99.90;;;;;;5041670;28;20052;-67
2021/05/04 02:30:55;;;;;;;14.03;6.43;;;6.70;99.90;;;;;;5041442;28;20044;-67
2021/05/04 02:33:22;;;;;;;11.27;5.80;;;6.60;99.90;;;;;;5040436;28;20048;-67
2021/05/04 02:35:48;;;;;;;11.70;6.40;;;6.70;99.90;;;;;;5043731;28;20047;-67
2021/05/04 02:38:15;;;;;;;12.47;6.40;;;6.60;99.90;;;;;;5035171;28;20526;-67
2021/05/04 02:40:42;;;;;;;12.40;6.17;;;6.60;99.90;;;;;;5044572;28;20523;-67
2021/05/04 02:43:08;;;;;;;11.20;6.03;;;6.60;99.90;;;;;;5041725;28;20520;-67
2021/05/04 02:45:35;;;;;;;11.73;6.17;;;6.60;99.90;;;;;;5042156;28;20056;-67
2021/05/04 02:48:02;;;;;;;10.97;6.20;;;6.60;99.90;;;;;;5038251;28;20054;-67
2021/05/04 02:50:29;;;;;;;12.47;5.97;;;6.60;99.90;;;;;;5041924;28;20098;-67
2021/05/04 02:52:56;;;;;;;11.10;5.90;;;6.60;99.90;;;;;;5037818;28;20102;-67
2021/05/04 02:55:22;;;;;;;10.30;6.13;;;6.60;99.90;;;;;;5041919;28;20565;-68
2021/05/04 02:57:49;;;;;;;11.80;6.73;;;6.60;99.90;;;;;;5039384;28;20404;-68
2021/05/04 03:00:16;;;;;;;14.90;6.67;;;6.60;99.90;;;;;;5043980;28;20058;-67
2021/05/04 03:02:43;;;;;;;12.80;5.93;;;6.60;99.90;;;;;;5043691;28;20062;-67
2021/05/04 03:05:11;;;;;;;10.40;6.00;;;6.50;99.90;;;;;;5038542;28;20059;-67
2021/05/04 03:07:38;;;;;;;11.87;6.53;;;6.60;99.90;;;;;;5041103;28;22152;-67
2021/05/04 03:10:06;;;;;;;10.60;6.33;;;6.60;99.90;;;;;;5041319;28;20412;-67
2021/05/04 03:12:33;;;;;;;10.67;5.90;;;6.50;99.90;;;;;;5041765;28;20052;-67
2021/05/04 03:14:59;;;;;;;14.00;6.17;;;6.60;99.90;;;;;;5041984;28;20043;-67
2021/05/04 03:17:26;;;;;;;12.20;6.80;;;6.60;99.90;;;;;;5037018;28;20055;-67
2021/05/04 03:19:53;;;;;;;12.17;5.93;;;6.60;99.90;;;;;;5040988;28;20054;-67
2021/05/04 03:22:20;;;;;;;11.83;6.53;;;6.60;99.90;;;;;;5043195;28;20052;-67
2021/05/04 03:24:47;;;;;;;10.53;6.40;;;6.60;99.90;;;;;;5039239;28;20051;-67
2021/05/04 03:27:14;;;;;;;11.17;6.60;;;6.60;99.90;;;;;;5035604;28;20066;-67
2021/05/04 03:29:40;;;;;;;11.57;6.33;;;6.60;99.90;;;;;;5038630;28;20063;-67
2021/05/04 03:32:07;;;;;;;12.83;6.37;;;6.70;99.90;;;;;;5044770;28;20082;-67
2021/05/04 03:34:34;;;;;;;13.20;6.53;;;6.70;99.90;;;;;;5040407;28;20428;-67
2021/05/04 03:37:00;;;;;;;14.33;7.03;;;6.70;99.90;;;;;;5035959;28;20063;-67
2021/05/04 03:39:28;;;;;;;10.90;6.13;;;6.70;99.90;;;;;;5038555;28;20483;-67
2021/05/04 03:41:54;;;;;;;10.67;5.80;;;6.70;99.90;;;;;;5038900;28;20079;-67
2021/05/04 03:44:21;;;;;;;11.80;6.93;;;6.70;99.90;;;;;;5040146;28;20893;-67
2021/05/04 03:46:48;;;;;;;11.30;5.80;;;6.70;99.90;;;;;;5038153;28;20044;-67
2021/05/04 03:49:14;;;;;;;11.57;5.67;;;6.70;99.90;;;;;;5042147;28;20056;-67
2021/05/04 03:51:41;;;;;;;8.93;5.37;;;6.80;99.90;;;;;;5044133;28;20056;-67
2021/05/04 03:54:07;;;;;;;11.27;6.00;;;6.80;99.90;;;;;;5040552;28;20521;-67
2021/05/04 03:56:35;;;;;;;10.23;6.37;;;6.80;99.90;;;;;;5040526;28;20052;-67
2021/05/04 03:59:02;;;;;;;12.37;5.57;;;6.80;99.90;;;;;;5039880;28;20040;-67
2021/05/04 04:01:28;;;;;;;13.30;6.03;;;6.80;99.90;;;;;;5044203;28;20063;-67
2021/05/04 04:03:55;;;;;;;11.87;6.10;;;6.80;99.90;;;;;;5042096;28;20431;-67
2021/05/04 04:06:21;;;;;;;11.97;6.50;;;6.90;99.90;;;;;;5042009;28;20055;-67
2021/05/04 04:08:48;;;;;;;10.83;6.10;;;6.90;99.90;;;;;;5035508;28;20053;-68
2021/05/04 04:11:15;;;;;;;10.80;6.37;;;6.90;99.90;;;;;;5038739;28;20055;-67
2021/05/04 04:13:43;;;;;;;13.20;6.30;;;7.10;99.90;;;;;;5041793;28;20044;-67
2021/05/04 04:16:09;;;;;;;10.40;5.63;;;7.00;99.90;;;;;;5043707;28;20116;-67
2021/05/04 04:18:36;;;;;;;10.83;5.57;;;7.00;99.90;;;;;;5042009;28;20060;-67
2021/05/04 04:21:02;;;;;;;12.10;5.80;;;7.00;99.90;;;;;;5046470;28;20094;-67
2021/05/04 04:23:29;;;;;;;14.53;6.97;;;7.10;99.90;;;;;;5044827;28;20059;-67
2021/05/04 04:25:56;;;;;;;12.77;6.60;;;7.10;99.90;;;;;;5045830;28;20051;-68
2021/05/04 04:28:23;;;;;;;10.47;5.43;;;7.10;99.90;;;;;;5043723;28;20059;-67
2021/05/04 04:30:50;;;;;;;11.43;5.93;;;7.20;99.90;;;;;;5048391;28;20153;-67
2021/05/04 04:33:23;;;;;;;11.60;6.07;;;7.30;99.90;;;;;;5044455;28;20081;-68
2021/05/04 04:35:50;;;;;;;9.47;5.67;;;7.30;99.90;;;;;;5043248;28;20129;-67
2021/05/04 04:38:17;;;;;;;11.37;6.37;;;7.40;99.90;;;;;;5038827;28;20052;-67
2021/05/04 04:40:44;;;;;;;10.87;5.83;;;7.50;99.90;;;;;;5046337;28;20044;-67
2021/05/04 04:43:11;;;;;;;11.23;5.60;;;7.50;99.90;;;;;;5041761;28;20139;-67
2021/05/04 04:45:38;;;;;;;11.00;5.47;;;7.60;99.90;;;;;;5046432;28;20185;-67
2021/05/04 04:48:06;;;;;;;8.40;4.87;;;7.70;99.90;;;;;;5040950;28;20469;-67
2021/05/04 04:50:33;;;;;;;9.63;5.23;;;7.70;99.90;;;;;;5044125;28;20048;-67
2021/05/04 04:52:59;;;;;;;11.20;6.20;;;7.80;99.90;;;;;;5050067;28;20058;-67
2021/05/04 04:55:26;;;;;;;10.13;5.60;;;7.80;99.90;;;;;;5046425;28;20056;-67
2021/05/04 04:57:53;;;;;;;10.50;5.80;;;7.90;99.90;;;;;;5047582;28;20458;-67
2021/05/04 05:00:20;;;;;;;10.97;5.73;;;7.90;99.90;;;;;;5050965;28;20109;-67
2021/05/04 05:02:47;;;;;;;11.90;5.70;;;8.00;99.90;;;;;;5044178;28;20052;-67
2021/05/04 05:05:15;;;;;;;13.38;5.57;;;8.00;99.90;;;;;;5041308;28;20094;-67
2021/05/04 05:07:42;;;;;;;13.40;5.72;;;8.10;99.90;;;;;;5039244;28;20067;-67
2021/05/04 05:10:10;;;;;;;9.50;5.80;;;8.20;99.90;;;;;;5044182;28;20093;-67
2021/05/04 05:12:37;;;;;;;10.00;5.70;;;8.20;99.90;;;;;;5045407;28;21099;-67
2021/05/04 05:15:05;;;;;;;11.23;5.78;;;8.30;99.90;;;;;;5041081;28;20052;-67
2021/05/04 05:17:32;;;;;;;13.45;5.22;;;8.30;99.90;;;;;;5042020;28;20071;-67
2021/05/04 05:19:59;;;;;;;11.95;5.57;;;8.40;99.90;;;;;;5044435;28;20080;-67
2021/05/04 05:22:27;;;;;;;14.05;5.20;;;8.50;99.90;;;;;;5044257;28;20060;-68
2021/05/04 05:24:55;;;;;;;9.80;5.22;;;8.50;99.90;;;;;;5044339;28;20041;-69
2021/05/04 05:27:21;;;;;;;11.43;5.78;;;8.60;99.90;;;;;;5039472;28;20053;-69
2021/05/04 05:29:48;;;;;;;10.15;5.15;;;8.70;99.90;;;;;;5039644;28;20045;-69
2021/05/04 05:32:15;;;;;;;9.15;4.55;;;8.70;99.90;;;;;;5042603;28;20520;-69
2021/05/04 05:34:42;;;;;;;12.68;5.20;;;8.80;99.90;;;;;;5035723;28;20090;-69
2021/05/04 05:37:08;;;;;;;10.65;4.60;;;8.80;99.90;;;;;;5041105;28;20497;-69
2021/05/04 05:39:41;;;;;;;;;;;8.90;99.90;;;;;;5040776;28;20157;-69
2021/05/04 05:42:08;;;;;;;10.68;4.95;;;8.90;99.90;;;;;;5045020;28;19924;-70
2021/05/04 05:44:35;;;;;;;10.82;4.65;;;9.00;99.90;;;;;;5045415;28;20080;-69
2021/05/04 05:47:01;;;;;;;;;;;9.00;99.90;;;;;;5044008;28;20417;-69
2021/05/04 05:49:28;;;;;;;8.73;4.82;;;9.00;99.90;;;;;;5044599;28;19934;-68
2021/05/04 05:51:54;;;;;;;9.07;4.38;;;9.10;99.90;;;;;;5050115;28;20059;-72
2021/05/04 05:54:22;;;;;;;8.05;4.28;;;9.20;99.90;;;;;;5039267;28;20048;-73
2021/05/04 05:56:50;;;;;;;9.63;4.72;;;9.30;99.90;;;;;;5043977;28;20338;-69
2021/05/04 05:59:17;;;;;;;8.25;3.88;;;9.30;99.90;;;;;;5045888;28;20565;-69
2021/05/04 06:01:43;;;;;;;9.27;4.43;;;9.40;99.90;;;;;;5039995;28;20072;-68
2021/05/04 06:04:10;;;;;;;10.35;4.43;;;9.40;99.90;;;;;;5040209;28;20110;-67
2021/05/04 06:06:36;;;;;;;;;;;9.50;99.90;;;;;;5042884;28;20973;-68
2021/05/04 06:09:04;;;;;;;7.88;3.90;;;9.60;99.90;;;;;;5043284;28;20053;-68
2021/05/04 06:11:30;;;;;;;7.38;4.07;;;9.60;99.90;;;;;;5042678;28;20059;-67
2021/05/04 06:13:58;;;;;;;10.05;4.68;;;9.70;99.90;;;;;;5044997;28;20080;-67
2021/05/04 06:16:24;;;;;;;7.13;3.83;;;9.80;99.90;;;;;;5046671;28;20131;-69
2021/05/04 06:18:51;;;;;;;7.75;4.00;;;9.80;99.90;;;;;;5045084;28;20086;-65
2021/05/04 06:21:17;;;;;;;;;;;9.90;99.90;;;;;;5049524;28;21306;-65
2021/05/04 06:23:43;;;;;;;7.88;4.05;;;9.90;99.90;;;;;;5048086;28;20391;-65
2021/05/04 06:26:10;;;;;;;8.40;4.20;;;10.00;99.90;;;;;;5056076;28;20070;-65
2021/05/04 06:28:38;;;;;;;9.90;5.05;;;10.10;99.90;;;;;;5053472;28;20292;-65
2021/05/04 06:31:06;;;;;;;8.20;3.70;;;10.10;99.90;;;;;;5047258;28;20054;-66
2021/05/04 06:33:33;;;;;;;9.13;4.20;;;10.20;99.90;;;;;;5048607;28;20500;-67
2021/05/04 06:36:00;;;;;;;9.52;4.53;;;10.20;99.90;;;;;;5044897;28;20565;-68
2021/05/04 06:38:27;;;;;;;7.45;4.18;;;10.30;99.90;;;;;;5040779;28;20463;-68
2021/05/04 06:40:53;;;;;;;7.57;4.00;;;10.40;99.90;;;;;;5044200;28;20052;-69
2021/05/04 06:43:19;;;;;;;;;;;10.50;99.90;;;;;;5044205;28;20151;-68
2021/05/04 06:45:46;;;;;;;6.65;3.53;;;10.60;99.90;;;;;;5047714;28;19924;-68
2021/05/04 06:48:14;;;;;;;12.48;4.13;;;10.60;99.90;;;;;;5044610;28;20098;-68
2021/05/04 06:50:40;;;;;;;6.28;3.63;;;10.70;99.90;;;;;;5043820;28;20056;-68
2021/05/04 06:53:06;;;;;;;;;;;10.70;99.90;;;;;;5043109;28;20538;-69
2021/05/04 06:55:33;;;;;;;6.93;3.53;;;10.90;99.90;;;;;;5042428;28;20601;-67
2021/05/04 06:58:01;;;;;;;8.27;3.75;;;11.00;99.90;;;;;;5044925;28;20504;-68
2021/05/04 07:00:28;;;;;;;6.63;3.10;;;11.10;99.90;;;;;;5046888;28;20052;-68
2021/05/04 07:02:54;;;;;;;6.63;3.50;;;11.20;99.90;;;;;;5044652;28;20117;-68
2021/05/04 07:05:22;;;;;;;;;;;11.30;99.90;;;;;;5040535;28;20421;-68
2021/05/04 07:07:48;;;;;;;7.22;3.10;;;11.40;99.90;;;;;;5045095;28;19931;-67
2021/05/04 07:10:15;;;;;;;7.07;3.50;;;11.40;99.90;;;;;;5041940;28;20497;-68
2021/05/04 07:12:43;;;;;;;8.90;3.53;;;11.40;99.90;;;;;;5040666;28;20080;-68
2021/05/04 07:15:10;;;;;;;8.90;3.78;;;11.60;99.90;;;;;;5039944;28;20533;-67
2021/05/04 07:17:37;;;;;;;6.72;3.40;;;11.70;99.90;;;;;;5050621;28;20880;-68
2021/05/04 07:20:05;;;;;;;8.45;3.60;;;11.70;99.90;;;;;;5052642;28;20093;-67
2021/05/04 07:22:34;;;;;;;6.35;3.10;;;11.90;99.90;;;;;;5053325;28;20669;-68
2021/05/04 07:25:00;;;;;;;5.95;3.28;;;11.90;99.90;;;;;;5050798;28;20071;-66
2021/05/04 07:27:27;;;;;;;;;;;12.00;99.90;;;;;;5050584;28;20092;-68
2021/05/04 07:29:53;;;;;;;5.22;2.67;;;12.00;99.90;;;;;;5042955;28;19924;-67
2021/05/04 07:32:19;;;;;;;;;;;12.00;99.90;;;;;;5050180;28;20048;-73
2021/05/04 07:34:46;;;;;;;7.05;2.95;;;12.00;99.90;;;;;;5047758;28;20392;-65
2021/05/04 07:37:13;;;;;;;5.40;2.67;;;12.10;99.90;;;;;;5050199;28;20047;-67
2021/05/04 07:46:25;;;;;;;6.32;3.17;;;12.40;99.90;;;;;;5050972;28;20116;-68
2021/05/04 07:48:53;;;;;;;5.75;3.20;;;12.40;99.90;;;;;;5044713;28;20558;-68
2021/05/04 07:51:20;;;;;;;7.88;3.17;;;12.40;99.90;;;;;;5044460;28;20113;-67
2021/05/04 07:53:46;;;;;;;6.45;3.08;;;12.40;99.90;;;;;;5042588;28;20080;-68
2021/05/04 07:56:13;;;;;;;;;;;12.40;99.90;;;;;;5057051;28;20059;-67
2021/05/04 07:58:39;;;;;;;5.80;2.63;;;12.40;99.90;;;;;;5058930;28;19924;-68
2021/05/04 08:01:07;;;;;;;5.07;2.28;;;12.40;99.90;;;;;;5054769;28;20048;-68
2021/05/04 08:03:35;;;;;;;6.25;2.63;;;12.40;99.90;;;;;;5053973;28;20052;-67
2021/05/04 08:06:02;;;;;;;6.57;2.50;;;12.50;99.90;;;;;;5057338;28;20060;-67
2021/05/04 08:08:28;;;;;;;5.70;2.92;;;12.50;99.90;;;;;;5059496;28;20094;-68
2021/05/04 08:10:55;;;;;;;5.22;2.42;;;12.60;99.90;;;;;;5056598;28;20141;-67
2021/05/04 08:13:21;;;;;;;7.38;2.60;;;12.60;99.90;;;;;;5058887;28;20048;-68
2021/05/04 08:15:50;;;;;;;;;;;12.60;99.90;;;;;;5057283;28;20082;-67
2021/05/04 08:18:17;;;;;;;5.82;2.72;;;12.60;99.90;;;;;;5053659;28;20430;-68
2021/05/04 08:20:48;;;;;;;4.97;2.45;;;12.70;99.90;;;;;;5056864;28;20047;-67
2021/05/04 08:23:15;;;;;;;4.93;2.60;;;12.70;99.90;;;;;;5053945;28;20137;-67
2021/05/04 08:25:42;;;;;;;5.75;2.67;;;12.80;99.90;;;;;;5055777;28;20048;-67
2021/05/04 08:28:08;;;;;;;6.80;2.55;;;12.90;99.90;;;;;;5056340;28;20228;-67
2021/05/04 08:30:35;;;;;;;;;;;12.80;99.90;;;;;;5055293;28;20079;-67
2021/05/04 08:33:01;;;;;;;4.90;2.23;;;12.80;99.90;;;;;;5056025;28;19928;-67
2021/05/04 08:35:28;;;;;;;4.82;2.15;;;12.70;99.90;;;;;;5054370;28;20067;-67
2021/05/04 08:37:57;;;;;;;5.68;2.30;;;12.80;99.90;;;;;;5052242;28;20079;-67
2021/05/04 08:40:24;;;;;;;5.20;2.30;;;12.90;99.90;;;;;;5055623;28;20055;-67
2021/05/04 08:42:51;;;;;;;4.32;2.15;;;12.90;99.90;;;;;;5054881;28;20048;-67
2021/05/04 08:45:18;;;;;;;4.75;2.38;;;13.00;99.90;;;;;;5047898;28;20125;-67
2021/05/04 08:47:45;;;;;;;4.15;2.30;;;13.00;99.90;;;;;;5044472;28;20114;-67
2021/05/04 08:50:14;;;;;;;5.05;2.35;;;13.10;99.90;;;;;;5052538;28;20071;-67
2021/05/04 08:52:41;;;;;;;5.68;2.30;;;13.20;99.90;;;;;;5054740;28;20167;-67
2021/05/04 08:55:11;;;;;;;4.32;2.38;;;13.30;99.90;;;;;;5048459;28;20138;-67
2021/05/04 08:57:38;;;;;;;5.95;2.72;;;13.30;99.90;;;;;;5052139;28;20088;-67
2021/05/04 09:00:07;;;;;;;8.30;2.53;;;13.40;99.90;;;;;;5054609;28;20726;-67
2021/05/04 09:02:38;;;;;;;5.75;2.78;;;13.40;99.90;;;;;;5050098;28;20047;-67
2021/05/04 09:05:14;;;;;;;7.38;3.38;;;13.30;99.90;;;;;;5056677;28;20063;-68
2021/05/04 09:07:40;;;;;;;5.22;2.58;;;13.30;99.90;;;;;;5055182;28;20082;-68
2021/05/04 09:10:25;;;;;;;5.50;2.50;;;13.30;99.90;;;;;;5055435;28;20052;-67
2021/05/04 09:12:57;;;;;;;7.60;3.20;;;13.40;99.90;;;;;;5055034;28;20053;-68
2021/05/04 09:15:50;;;;;;;5.80;2.60;;;13.30;99.90;;;;;;5057556;28;20075;-67
2021/05/04 09:18:38;;;;;;;4.90;2.92;;;13.40;99.90;;;;;;5050833;28;20073;-67
2021/05/04 09:21:06;;;;;;;5.40;2.85;;;13.50;99.90;;;;;;5056004;28;20148;-68
2021/05/04 09:23:33;;;;;;;7.35;3.38;;;13.60;99.90;;;;;;5054677;28;20113;-68
2021/05/04 09:26:00;;;;;;;6.93;2.83;;;13.70;99.90;;;;;;5057748;28;20048;-67
2021/05/04 09:28:26;;;;;;;5.13;2.80;;;13.70;99.90;;;;;;5055836;28;20055;-68
2021/05/04 09:30:55;;;;;;;6.47;2.65;;;13.90;99.90;;;;;;5056402;28;20048;-68
2021/05/04 09:33:23;;;;;;;4.97;2.70;;;14.00;99.90;;;;;;5055566;28;20056;-67
2021/05/04 09:35:49;;;;;;;7.40;3.00;;;14.20;99.90;;;;;;5054217;28;20055;-68
2021/05/04 09:38:17;;;;;;;7.00;2.97;;;14.40;99.90;;;;;;5051350;28;20053;-68
2021/05/04 09:40:45;;;;;;;9.50;2.10;;;14.60;99.90;;;;;;5052277;28;20136;-68
2021/05/04 09:43:15;;;;;;;6.32;2.15;;;14.80;99.90;;;;;;5049791;28;20048;-68
2021/05/04 09:45:43;;;;;;;4.95;1.83;;;15.00;99.90;;;;;;5052112;28;20496;-68
2021/05/04 09:48:22;;;;;;;3.35;1.83;;;15.20;99.90;;;;;;5052446;28;20087;-68
2021/05/04 09:51:01;;;;;;;3.72;1.90;;;15.40;99.90;;;;;;5053967;28;20145;-68
2021/05/04 09:53:36;;;;;;;5.32;1.95;;;15.60;99.90;;;;;;5051332;28;20074;-68
2021/05/04 09:56:03;;;;;;;3.92;1.88;;;15.80;99.90;;;;;;5047731;28;20048;-68
2021/05/04 09:58:35;;;;;;;6.13;1.90;;;16.00;99.90;;;;;;5052418;28;20049;-68
2021/05/04 10:01:04;;;;;;;4.15;1.63;;;16.10;99.90;;;;;;5053252;28;20129;-68
2021/05/04 10:03:30;;;;;;;5.35;1.88;;;16.00;99.90;;;;;;5051426;28;20048;-68
2021/05/04 10:06:01;;;;;;;4.43;1.50;;;16.00;99.90;;;;;;5050440;28;20516;-67
2021/05/04 10:08:31;;;;;;;8.60;2.08;;;15.90;99.60;;;;;;5048945;28;20059;-68
2021/05/04 10:10:59;;;;;;;7.68;1.70;;;16.00;99.40;;;;;;5050909;28;20056;-68
2021/05/04 10:13:28;;;;;;;5.05;1.65;;;16.00;99.00;;;;;;5038650;28;20141;-68
2021/05/04 10:15:57;;;;;;;6.97;1.45;;;15.80;95.70;;;;;;5046380;28;20080;-68
2021/05/04 10:18:25;;;;;;;11.63;1.60;;;15.70;95.90;;;;;;5045999;28;20060;-68
2021/05/04 10:20:53;;;;;;;6.18;1.50;;;15.70;94.30;;;;;;5050018;28;20052;-67
2021/05/04 10:23:20;;;;;;;2.78;1.63;;;15.60;91.60;;;;;;5048053;28;20071;-67
2021/05/04 10:25:51;;;;;;;1.73;0.95;;;15.60;91.40;;;;;;5042119;28;20109;-68
2021/05/04 10:28:18;;;;;;;6.03;2.03;;;15.60;90.70;;;;;;5046851;28;20505;-68
2021/05/04 10:30:45;;;;;;;5.55;2.03;;;15.70;91.30;;;;;;5049285;28;20075;-67
2021/05/04 10:33:37;;;;;;;3.33;1.23;;;15.60;91.20;;;;;;5038975;28;20056;-68
2021/05/04 10:36:05;;;;;;;8.35;1.65;;;15.60;90.80;;;;;;5050373;28;20135;-67
2021/05/04 10:39:03;;;;;;;5.22;1.73;;;15.70;91.00;;;;;;5049637;28;20060;-67
2021/05/04 10:41:30;;;;;;;6.90;1.90;;;15.70;91.00;;;;;;4964918;28;20050;-67
2021/05/04 10:44:02;;;;;;;6.43;2.83;;;15.80;91.90;;;;;;5030908;28;20052;-68
2021/05/04 10:46:37;;;;;;;5.95;1.70;;;16.00;91.20;;;;;;5050640;28;20068;-67
2021/05/04 10:49:05;;;;;;;9.95;2.03;;;16.20;91.50;;;;;;5050764;28;20050;-68
2021/05/04 10:51:49;;;;;;;6.55;1.48;;;16.50;91.30;;;;;;5049530;28;20467;-69
2021/05/04 10:54:17;;;;;;;6.43;1.90;;;16.50;90.70;;;;;;5053243;28;20500;-68
2021/05/04 10:56:46;;;;;;;7.68;2.10;;;16.40;90.50;;;;;;5055073;28;20052;-68
2021/05/04 10:59:14;;;;;;;5.38;1.75;;;16.30;90.50;;;;;;5051389;28;20045;-68
2021/05/04 11:02:19;;;;;;;6.88;1.95;;;16.20;90.40;;;;;;5042126;28;20059;-68
2021/05/04 11:04:48;;;;;;;4.95;2.00;;;16.30;91.10;;;;;;5049343;28;20500;-68
2021/05/04 11:08:01;;;;;;;10.10;1.80;;;16.00;91.30;;;;;;5047954;28;20052;-68
2021/05/04 11:10:28;;;;;;;8.13;2.00;;;15.90;92.10;;;;;;5053220;28;20056;-68
2021/05/04 11:12:56;;;;;;;4.82;1.98;;;15.70;92.50;;;;;;5052722;28;20052;-68
2021/05/04 11:15:24;;;;;;;8.52;1.80;;;15.80;92.60;;;;;;5054175;28;20731;-68
2021/05/04 11:17:51;;;;;;;7.22;1.90;;;15.70;92.10;;;;;;5049115;28;20080;-68
2021/05/04 11:20:36;;;;;;;5.20;1.40;;;15.50;92.90;;;;;;5053105;28;20484;-68
2021/05/04 11:23:04;;;;;;;6.35;1.40;;;15.10;93.80;;;;;;5052671;28;20098;-68
2021/05/04 11:25:32;;;;;;;8.48;2.00;;;15.20;94.50;;;;;;5050455;28;20055;-67
2021/05/04 11:27:58;;;;;;;3.97;1.23;;;15.00;94.80;;;;;;5051836;28;20055;-67
2021/05/04 11:30:33;;;;;;;6.05;1.20;;;14.80;95.90;;;;;;5055082;28;20079;-67
2021/05/04 11:33:00;;;;;;;4.65;1.10;;;14.60;98.40;;;;;;5057936;28;20052;-68
2021/05/04 11:35:37;;;;;;;4.32;1.95;;;14.40;99.90;;;;;;5053860;28;20465;-67
2021/05/04 11:38:03;;;;;;;5.65;1.40;;;14.20;99.90;;;;;;5054323;28;20090;-67
2021/05/04 11:40:30;;;;;;;5.28;1.45;;;14.00;99.90;;;;;;5055189;28;20053;-69
2021/05/04 11:42:59;;;;;;;6.28;1.58;;;14.10;99.90;;;;;;5057857;28;20060;-67
2021/05/04 11:45:29;;;;;;;7.10;1.90;;;14.00;99.90;;;;;;5056364;28;20467;-67
2021/05/04 11:47:57;;;;;;;6.57;1.67;;;13.90;99.90;;;;;;5056173;28;20092;-68
2021/05/04 11:50:27;;;;;;;3.17;1.45;;;14.00;99.90;;;;;;5056642;28;20236;-67
2021/05/04 11:52:58;;;;;;;9.80;1.88;;;14.00;99.90;;;;;;5055429;28;20048;-67
2021/05/04 11:55:26;;;;;;;5.05;1.48;;;14.10;99.90;;;;;;5055691;28;20064;-67
2021/05/04 11:57:56;;;;;;;6.05;1.30;;;14.00;99.90;;;;;;5054158;28;20982;-67
2021/05/04 12:00:27;;;;;;;6.38;1.60;;;13.90;99.90;;;;;;5056040;28;20049;-67
2021/05/04 12:02:53;;;;;;;2.78;1.23;;;13.80;99.90;;;;;;5052628;28;20052;-67
2021/05/04 12:05:28;;;;;;;3.70;1.63;;;13.70;99.90;;;;;;5057055;28;20756;-67
2021/05/04 12:07:56;;;;;;;4.82;1.80;;;13.40;99.90;;;;;;5057220;28;20059;-66
2021/05/04 12:10:28;;;;;;;4.03;1.00;;;13.30;99.90;;;;;;5060152;28;20049;-67
2021/05/04 12:12:57;;;;;;;3.80;1.30;;;13.00;99.90;;;;;;5057611;28;20068;-67
2021/05/04 12:15:25;;;;;;;2.00;1.27;;;13.00;99.90;;;;;;5055253;28;20501;-67
2021/05/04 12:17:56;;;;;;;5.68;1.60;;;12.90;99.90;;;;;;5055861;28;20084;-67
2021/05/04 12:20:24;;;;;;;3.88;1.27;;;12.90;99.90;;;;;;5050969;28;20048;-67
2021/05/04 12:22:52;;;;;;;5.80;1.58;;;12.80;99.90;;;;;;5047685;28;20049;-67
2021/05/04 12:25:22;;;;;;;4.38;1.42;;;12.90;99.90;;;;;;5051372;28;20535;-67
2021/05/04 12:27:49;;;;;;;6.13;1.50;;;13.00;99.90;;;;;;5054912;28;20052;-66
2021/05/04 12:30:21;;;;;;;4.00;1.00;;;13.10;99.90;;;;;;5053320;28;20071;-67
2021/05/04 12:32:48;;;;;;;4.13;1.33;;;13.00;99.90;;;;;;5058414;28;20052;-67
2021/05/04 12:35:21;;;;;;;4.70;1.08;;;13.30;99.90;;;;;;5055340;28;20060;-67
2021/05/04 12:38:01;;;;;;;4.80;1.30;;;13.20;99.90;;;;;;5055592;28;20048;-67
2021/05/04 12:40:29;;;;;;;3.92;0.88;;;13.20;99.90;;;;;;5052046;28;20056;-67
2021/05/04 12:43:13;;;;;;;3.03;1.17;;;13.30;99.90;;;;;;5056662;28;20115;-67
2021/05/04 12:45:58;;;;;;;4.35;1.05;;;13.50;99.90;;;;;;5054794;28;20052;-67
2021/05/04 12:48:25;;;;;;;2.30;0.88;;;13.70;99.90;;;;;;5055563;28;21092;-67
2021/05/04 12:50:59;;;;;;;1.75;0.93;;;13.50;99.90;;;;;;5054755;28;20500;-67
2021/05/04 12:53:32;;;;;;;5.05;1.13;;;13.60;99.90;;;;;;5053246;28;20538;-67
2021/05/04 12:56:01;;;;;;;2.10;0.98;;;13.50;99.90;;;;;;5054615;28;20553;-68
2021/05/04 12:58:28;;;;;;;4.53;1.10;;;13.70;99.90;;;;;;5053749;28;20566;-67
2021/05/04 13:01:09;;;;;;;4.72;1.63;;;13.90;99.90;;;;;;5053213;28;20501;-67
2021/05/04 13:03:46;;;;;;;1.25;0.82;;;14.10;99.90;;;;;;5052910;28;21253;-67